Valley Falls, Rhode Island
Current Conditions -  °F | °C
As of 11:15 AM on Friday 21 Nov 2014 (Local Time) from KSFZ Reporting Station
Clear Clear  
Wind Chill: 24°   Ceiling: Unl
Heat Index: 34°   Visibility: 10mi
Dew Point:   Wind: 16mph
Humidity: 35%   Direction: 300°WNW
Pressure: 30.11"   Gusts: 22mph
Location:  41.91°N, 71.39°W
Report Text: KSFZ 211615Z 30014G19KT 10SM CLR 01/M13 A3011 RMK AO1
Loading
Personal Weather Stations






























Interactive Weather Map New forecast layout! Learn more

10-Day Weather Forecast

Advertisements
Track Severe Weather on mobile